MSC Divina — 3FFA5 — position and weather

sailwx.info

Track history (hours):
 
Tides and Currents Weather Stations Pressure Air Temp Water Temp Dewpoint Dewpoint Depression Visibility Wind Speed Wind Dir Waves Ship Positions

MSC Divina

Last reported at 2015-Jan-28 04:08 UTC. Time now 2015-Jan-28 22:16 UTC.
Position N 18°12' W 064°56'.

Length 333 m; draft 8.7 m.

Type: Passenger vessel. MMSI: 373178000.

Date/timePositionNaut miles runAvg speedWind from/ knotsBaromVisibWave heightAir tempDewpointWater temp
2015-Jan-28 04:08N 18°12' W 064°56'1017.7
2015-Jan-28 03:33N 18°10' W 064°45'7218.0
2015-Jan-27 23:33N 18°03' W 063°30'1818.0
2015-Jan-27 22:31N 18°01' W 063°11'7 6.5
2015-Jan-27 21:22N 18°01' W 063°03'0 0.0
2015-Jan-27 20:25N 18°01' W 063°03'0 0.0
2015-Jan-27 19:25N 18°01' W 063°03'0 0.0
2015-Jan-27 18:28N 18°01' W 063°03'0 0.0
2015-Jan-27 17:25N 18°01' W 063°03'0 0.0
2015-Jan-27 16:25N 18°01' W 063°03'0 0.0
2015-Jan-27 14:19N 18°01' W 063°03'1 0.6
2015-Jan-27 12:10N 18°00' W 063°04'915.1
2015-Jan-27 11:33N 18°02' W 063°14'1616.3
2015-Jan-27 10:33N 18°13' W 063°27'1716.5
2015-Jan-27 09:33N 18°23' W 063°41'98219.2
2015-Jan-25 06:16N 26°12' W 079°13'1520.5
2015-Jan-25 05:33N 26°05' W 079°27'2121.2
2015-Jan-25 04:33N 25°54' W 079°48'1817.8
2015-Jan-25 03:33N 25°46' W 080°05'5 4.0
2015-Jan-25 02:21N 25°47' W 080°10'0 0.0
2015-Jan-25 01:32N 25°47' W 080°10'0 0.0
2015-Jan-25 00:32N 25°47' W 080°10'0 0.0
2015-Jan-24 23:32N 25°47' W 080°10'0 0.0
2015-Jan-24 22:32N 25°47' W 080°10'0 0.0
2015-Jan-24 21:20N 25°47' W 080°10'0 0.0
2015-Jan-24 20:20N 25°47' W 080°10'0 0.0
2015-Jan-24 19:26N 25°47' W 080°10'0 0.0
2015-Jan-24 18:26N 25°47' W 080°10'0 0.0
2015-Jan-24 17:26N 25°47' W 080°10'0 0.0
2015-Jan-24 16:29N 25°47' W 080°10'0 0.0
2015-Jan-24 15:26N 25°47' W 080°10'0 0.0
2015-Jan-24 14:29N 25°47' W 080°10'0 0.0
2015-Jan-24 13:26N 25°47' W 080°10'0 0.0
2015-Jan-24 12:32N 25°47' W 080°10'0 0.0
2015-Jan-24 11:29N 25°47' W 080°10'1 0.7
2015-Jan-24 10:33N 25°47' W 080°11'8 8.5
2015-Jan-24 09:33N 25°46' W 080°02'1111.3
2015-Jan-24 08:33N 25°52' W 079°51'1514.7
2015-Jan-24 07:33N 25°60' W 079°37'1717.1
2015-Jan-24 06:33N 26°09' W 079°21'6710.5
2015-Jan-24 00:10N 26°02' W 078°06'16 9.1
2015-Jan-23 22:27N 25°51' W 077°55'75 5.0
2015-Jan-23 07:31N 26°09' W 079°15'1818.8
2015-Jan-23 06:33N 25°52' W 079°20'52918.9
2015-Jan-22 02:33N 20°31' W 086°58'1 0.5
2015-Jan-22 01:28N 20°31' W 086°57'0 0.0
2015-Jan-22 00:28N 20°31' W 086°57'0 0.0
2015-Jan-21 23:31N 20°31' W 086°57'0 0.0
2015-Jan-21 22:49N 20°31' W 086°57'0 0.0
2015-Jan-21 22:43N 20°31' W 086°57'0 0.0
2015-Jan-21 22:31N 20°31' W 086°57'0 0.0
2015-Jan-21 21:31N 20°31' W 086°57'0 0.0
2015-Jan-21 20:31N 20°31' W 086°57'0 0.0
2015-Jan-21 19:31N 20°31' W 086°57'0 0.0
2015-Jan-21 18:31N 20°31' W 086°57'0 0.0
2015-Jan-21 17:31N 20°31' W 086°57'0 0.0
2015-Jan-21 16:31N 20°31' W 086°57'0 0.0
2015-Jan-21 15:28N 20°31' W 086°57'7 6.5
2015-Jan-21 14:23N 20°37' W 086°55'  
Track history (hours):
 
Tides and Currents Weather Stations Pressure Air Temp Water Temp Dewpoint Dewpoint Depression Visibility Wind Speed Wind Dir Waves Ship Positions

MSC Divina

Last reported at 2015-Jan-28 04:08 UTC. Time now 2015-Jan-28 22:16 UTC.
Position N 18°12' W 064°56'.

Length 333 m; draft 8.7 m.

Type: Passenger vessel. MMSI: 373178000.

Date/timePositionNaut miles runAvg speedWind from/ knotsBaromVisibWave heightAir tempDewpointWater temp
2015-Jan-28 04:08N 18°12' W 064°56'1017.7
2015-Jan-28 03:33N 18°10' W 064°45'7218.0
2015-Jan-27 23:33N 18°03' W 063°30'1818.0
2015-Jan-27 22:31N 18°01' W 063°11'7 6.5
2015-Jan-27 21:22N 18°01' W 063°03'0 0.0
2015-Jan-27 20:25N 18°01' W 063°03'0 0.0
2015-Jan-27 19:25N 18°01' W 063°03'0 0.0
2015-Jan-27 18:28N 18°01' W 063°03'0 0.0
2015-Jan-27 17:25N 18°01' W 063°03'0 0.0
2015-Jan-27 16:25N 18°01' W 063°03'0 0.0
2015-Jan-27 14:19N 18°01' W 063°03'1 0.6
2015-Jan-27 12:10N 18°00' W 063°04'915.1
2015-Jan-27 11:33N 18°02' W 063°14'1616.3
2015-Jan-27 10:33N 18°13' W 063°27'1716.5
2015-Jan-27 09:33N 18°23' W 063°41'98219.2
2015-Jan-25 06:16N 26°12' W 079°13'1520.5
2015-Jan-25 05:33N 26°05' W 079°27'2121.2
2015-Jan-25 04:33N 25°54' W 079°48'1817.8
2015-Jan-25 03:33N 25°46' W 080°05'5 4.0
2015-Jan-25 02:21N 25°47' W 080°10'0 0.0
2015-Jan-25 01:32N 25°47' W 080°10'0 0.0
2015-Jan-25 00:32N 25°47' W 080°10'0 0.0
2015-Jan-24 23:32N 25°47' W 080°10'0 0.0
2015-Jan-24 22:32N 25°47' W 080°10'0 0.0
2015-Jan-24 21:20N 25°47' W 080°10'0 0.0
2015-Jan-24 20:20N 25°47' W 080°10'0 0.0
2015-Jan-24 19:26N 25°47' W 080°10'0 0.0
2015-Jan-24 18:26N 25°47' W 080°10'0 0.0
2015-Jan-24 17:26N 25°47' W 080°10'0 0.0
2015-Jan-24 16:29N 25°47' W 080°10'0 0.0
2015-Jan-24 15:26N 25°47' W 080°10'0 0.0
2015-Jan-24 14:29N 25°47' W 080°10'0 0.0
2015-Jan-24 13:26N 25°47' W 080°10'0 0.0
2015-Jan-24 12:32N 25°47' W 080°10'0 0.0
2015-Jan-24 11:29N 25°47' W 080°10'1 0.7
2015-Jan-24 10:33N 25°47' W 080°11'8 8.5
2015-Jan-24 09:33N 25°46' W 080°02'1111.3
2015-Jan-24 08:33N 25°52' W 079°51'1514.7
2015-Jan-24 07:33N 25°60' W 079°37'1717.1
2015-Jan-24 06:33N 26°09' W 079°21'6710.5
2015-Jan-24 00:10N 26°02' W 078°06'16 9.1
2015-Jan-23 22:27N 25°51' W 077°55'75 5.0
2015-Jan-23 07:31N 26°09' W 079°15'1818.8
2015-Jan-23 06:33N 25°52' W 079°20'52918.9
2015-Jan-22 02:33N 20°31' W 086°58'1 0.5
2015-Jan-22 01:28N 20°31' W 086°57'0 0.0
2015-Jan-22 00:28N 20°31' W 086°57'0 0.0
2015-Jan-21 23:31N 20°31' W 086°57'0 0.0
2015-Jan-21 22:49N 20°31' W 086°57'0 0.0
2015-Jan-21 22:43N 20°31' W 086°57'0 0.0
2015-Jan-21 22:31N 20°31' W 086°57'0 0.0
2015-Jan-21 21:31N 20°31' W 086°57'0 0.0
2015-Jan-21 20:31N 20°31' W 086°57'0 0.0
2015-Jan-21 19:31N 20°31' W 086°57'0 0.0
2015-Jan-21 18:31N 20°31' W 086°57'0 0.0
2015-Jan-21 17:31N 20°31' W 086°57'0 0.0
2015-Jan-21 16:31N 20°31' W 086°57'0 0.0
2015-Jan-21 15:28N 20°31' W 086°57'7 6.5
2015-Jan-21 14:23N 20°37' W 086°55'  

Dump ship's entire track history